Flight Briefing for CPX369

Departure Arrival
Daniel K Inouye International Airport (PHNL)
Click to view FAA NOTAMS
March Air Reserve Base (KRIV)
Click to view FAA NOTAMS
Departure Time Arrival Time
N/A N/A
Aircraft Distance
B767-300BDSF 2277nm
Departure METAR Arrival METAR
PHNL 252353Z 07012G18KT 10SM SCT028 BKN046 BKN075 27/18 A3006 RMK AO2 RAB22E32 SLP179 P0000 60000 T02720178 10278 20228 58015 KRIV 252358Z AUTO 29006KT 10SM CLR 23/07 A3004 RMK AO2 SLP169 T02290074 10245 20200 57013
Suggested Route
MKK4 FITES R578 FICKY ROSIN MALIT OCN


View recent IFR Routes data
Notes



Charts and Procedures

Charts for PHNL
No chart available
Charts for KRIV
No chart available

Windy.com Weather Map